sensor_id;sensor_type;location;lat;lon;timestamp;temperature;humidity
26655;DHT22;14278;50.784;4.630;2023-02-15T00:01:05;4.50;99.90
26655;DHT22;14278;50.784;4.630;2023-02-15T00:03:31;4.90;99.90
26655;DHT22;14278;50.784;4.630;2023-02-15T00:05:57;5.10;99.90
26655;DHT22;14278;50.784;4.630;2023-02-15T00:08:23;4.90;99.90
26655;DHT22;14278;50.784;4.630;2023-02-15T00:10:49;4.70;99.90
26655;DHT22;14278;50.784;4.630;2023-02-15T00:13:15;4.60;99.90
26655;DHT22;14278;50.784;4.630;2023-02-15T00:15:42;4.30;99.90
26655;DHT22;14278;50.784;4.630;2023-02-15T00:18:07;4.20;99.90
26655;DHT22;14278;50.784;4.630;2023-02-15T00:20:33;4.20;99.90
26655;DHT22;14278;50.784;4.630;2023-02-15T00:23:00;4.20;99.90
26655;DHT22;14278;50.784;4.630;2023-02-15T00:25:26;4.10;99.90
26655;DHT22;14278;50.784;4.630;2023-02-15T00:27:52;4.20;99.90
26655;DHT22;14278;50.784;4.630;2023-02-15T00:30:18;4.40;99.90
26655;DHT22;14278;50.784;4.630;2023-02-15T00:32:44;4.40;99.90
26655;DHT22;14278;50.784;4.630;2023-02-15T00:35:13;4.60;99.90
26655;DHT22;14278;50.784;4.630;2023-02-15T00:37:38;4.40;99.90
26655;DHT22;14278;50.784;4.630;2023-02-15T00:40:05;4.30;99.90
26655;DHT22;14278;50.784;4.630;2023-02-15T00:42:31;4.20;99.90
26655;DHT22;14278;50.784;4.630;2023-02-15T00:44:57;4.00;99.90
26655;DHT22;14278;50.784;4.630;2023-02-15T00:47:24;4.00;99.90
26655;DHT22;14278;50.784;4.630;2023-02-15T00:49:50;4.20;99.90
26655;DHT22;14278;50.784;4.630;2023-02-15T00:52:17;4.30;99.90
26655;DHT22;14278;50.784;4.630;2023-02-15T00:54:43;4.30;99.90
26655;DHT22;14278;50.784;4.630;2023-02-15T00:57:08;4.10;99.90
26655;DHT22;14278;50.784;4.630;2023-02-15T00:59:35;4.00;99.90
26655;DHT22;14278;50.784;4.630;2023-02-15T01:02:01;4.20;99.90
26655;DHT22;14278;50.784;4.630;2023-02-15T01:04:27;4.70;99.90
26655;DHT22;14278;50.784;4.630;2023-02-15T01:06:53;4.70;99.90
26655;DHT22;14278;50.784;4.630;2023-02-15T01:09:19;4.40;99.90
26655;DHT22;14278;50.784;4.630;2023-02-15T01:11:45;4.30;99.90
26655;DHT22;14278;50.784;4.630;2023-02-15T01:14:11;4.10;99.90
26655;DHT22;14278;50.784;4.630;2023-02-15T01:16:38;3.80;99.90
26655;DHT22;14278;50.784;4.630;2023-02-15T01:19:04;3.40;99.90
26655;DHT22;14278;50.784;4.630;2023-02-15T01:21:31;3.30;99.90
26655;DHT22;14278;50.784;4.630;2023-02-15T01:24:00;3.30;99.90
26655;DHT22;14278;50.784;4.630;2023-02-15T01:26:26;3.50;99.90
26655;DHT22;14278;50.784;4.630;2023-02-15T01:28:53;3.70;99.90
26655;DHT22;14278;50.784;4.630;2023-02-15T01:31:20;3.70;99.90
26655;DHT22;14278;50.784;4.630;2023-02-15T01:33:47;4.00;99.90
26655;DHT22;14278;50.784;4.630;2023-02-15T01:36:14;4.40;99.90
26655;DHT22;14278;50.784;4.630;2023-02-15T01:38:40;4.30;99.90
26655;DHT22;14278;50.784;4.630;2023-02-15T01:41:07;3.80;99.90
26655;DHT22;14278;50.784;4.630;2023-02-15T01:43:51;3.80;99.90
26655;DHT22;14278;50.784;4.630;2023-02-15T01:46:20;3.70;99.90
26655;DHT22;14278;50.784;4.630;2023-02-15T01:48:51;3.90;99.90
26655;DHT22;14278;50.784;4.630;2023-02-15T01:51:22;3.70;99.90
26655;DHT22;14278;50.784;4.630;2023-02-15T01:53:54;4.00;99.90
26655;DHT22;14278;50.784;4.630;2023-02-15T01:56:24;3.90;99.90
26655;DHT22;14278;50.784;4.630;2023-02-15T01:58:54;4.00;99.90
26655;DHT22;14278;50.784;4.630;2023-02-15T02:01:21;4.00;99.90
26655;DHT22;14278;50.784;4.630;2023-02-15T02:06:52;3.60;99.90
26655;DHT22;14278;50.784;4.630;2023-02-15T02:09:18;3.40;99.90
26655;DHT22;14278;50.784;4.630;2023-02-15T02:11:46;3.30;99.90
26655;DHT22;14278;50.784;4.630;2023-02-15T02:14:13;3.20;99.90
26655;DHT22;14278;50.784;4.630;2023-02-15T02:27:49;3.40;99.90
26655;DHT22;14278;50.784;4.630;2023-02-15T02:35:52;3.60;99.90
26655;DHT22;14278;50.784;4.630;2023-02-15T02:44:10;3.10;99.90
26655;DHT22;14278;50.784;4.630;2023-02-15T02:47:02;3.20;99.90
26655;DHT22;14278;50.784;4.630;2023-02-15T02:49:38;3.00;99.90
26655;DHT22;14278;50.784;4.630;2023-02-15T02:52:33;3.30;99.90
26655;DHT22;14278;50.784;4.630;2023-02-15T02:54:54;3.20;99.90
26655;DHT22;14278;50.784;4.630;2023-02-15T02:57:23;3.00;99.90
26655;DHT22;14278;50.784;4.630;2023-02-15T02:59:50;2.80;99.90
26655;DHT22;14278;50.784;4.630;2023-02-15T03:02:21;3.10;99.90
26655;DHT22;14278;50.784;4.630;2023-02-15T03:04:54;3.10;99.90
26655;DHT22;14278;50.784;4.630;2023-02-15T03:07:26;3.30;99.90
26655;DHT22;14278;50.784;4.630;2023-02-15T03:09:57;3.30;99.90
26655;DHT22;14278;50.784;4.630;2023-02-15T03:12:29;3.40;99.90
26655;DHT22;14278;50.784;4.630;2023-02-15T03:15:20;2.90;99.90
26655;DHT22;14278;50.784;4.630;2023-02-15T03:17:51;2.60;99.90
26655;DHT22;14278;50.784;4.630;2023-02-15T03:20:31;2.70;99.90
26655;DHT22;14278;50.784;4.630;2023-02-15T03:23:02;2.80;99.90
26655;DHT22;14278;50.784;4.630;2023-02-15T03:25:41;2.60;99.90
26655;DHT22;14278;50.784;4.630;2023-02-15T03:28:14;2.50;99.90
26655;DHT22;14278;50.784;4.630;2023-02-15T03:30:45;2.80;99.90
26655;DHT22;14278;50.784;4.630;2023-02-15T03:33:12;2.90;99.90
26655;DHT22;14278;50.784;4.630;2023-02-15T03:35:46;2.80;99.90
26655;DHT22;14278;50.784;4.630;2023-02-15T03:38:18;2.70;99.90
26655;DHT22;14278;50.784;4.630;2023-02-15T03:40:47;2.90;99.90
26655;DHT22;14278;50.784;4.630;2023-02-15T03:43:43;2.80;99.90
26655;DHT22;14278;50.784;4.630;2023-02-15T03:46:33;2.80;99.90
26655;DHT22;14278;50.784;4.630;2023-02-15T03:49:29;2.80;99.90
26655;DHT22;14278;50.784;4.630;2023-02-15T03:51:57;2.90;99.90
26655;DHT22;14278;50.784;4.630;2023-02-15T03:54:27;3.20;99.90
26655;DHT22;14278;50.784;4.630;2023-02-15T03:57:19;3.40;99.90
26655;DHT22;14278;50.784;4.630;2023-02-15T04:00:14;3.10;99.90
26655;DHT22;14278;50.784;4.630;2023-02-15T04:03:49;2.70;99.90
26655;DHT22;14278;50.784;4.630;2023-02-15T04:05:51;2.50;99.90
26655;DHT22;14278;50.784;4.630;2023-02-15T04:08:17;2.40;99.90
26655;DHT22;14278;50.784;4.630;2023-02-15T04:10:43;2.70;99.90
26655;DHT22;14278;50.784;4.630;2023-02-15T04:13:29;2.80;99.90
26655;DHT22;14278;50.784;4.630;2023-02-15T04:15:55;2.90;99.90
26655;DHT22;14278;50.784;4.630;2023-02-15T04:18:39;3.10;99.90
26655;DHT22;14278;50.784;4.630;2023-02-15T04:21:26;2.70;99.90
26655;DHT22;14278;50.784;4.630;2023-02-15T04:24:11;2.50;99.90
26655;DHT22;14278;50.784;4.630;2023-02-15T04:26:55;2.50;99.90
26655;DHT22;14278;50.784;4.630;2023-02-15T04:29:24;2.50;99.90
26655;DHT22;14278;50.784;4.630;2023-02-15T04:31:51;2.50;99.90
26655;DHT22;14278;50.784;4.630;2023-02-15T04:34:17;2.50;99.90
26655;DHT22;14278;50.784;4.630;2023-02-15T04:36:43;2.50;99.90
26655;DHT22;14278;50.784;4.630;2023-02-15T04:39:12;2.50;99.90
26655;DHT22;14278;50.784;4.630;2023-02-15T04:41:39;2.40;99.90
26655;DHT22;14278;50.784;4.630;2023-02-15T04:44:05;2.40;99.90
26655;DHT22;14278;50.784;4.630;2023-02-15T04:46:34;2.50;99.90
26655;DHT22;14278;50.784;4.630;2023-02-15T04:49:00;2.40;99.90
26655;DHT22;14278;50.784;4.630;2023-02-15T04:51:26;2.80;99.90
26655;DHT22;14278;50.784;4.630;2023-02-15T04:53:52;3.30;99.90
26655;DHT22;14278;50.784;4.630;2023-02-15T04:56:19;3.50;99.90
26655;DHT22;14278;50.784;4.630;2023-02-15T04:58:46;3.60;99.90
26655;DHT22;14278;50.784;4.630;2023-02-15T05:01:12;3.50;99.90
26655;DHT22;14278;50.784;4.630;2023-02-15T05:03:38;3.40;99.90
26655;DHT22;14278;50.784;4.630;2023-02-15T05:06:05;3.00;99.90
26655;DHT22;14278;50.784;4.630;2023-02-15T05:08:31;2.60;99.90
26655;DHT22;14278;50.784;4.630;2023-02-15T05:10:57;2.40;99.90
26655;DHT22;14278;50.784;4.630;2023-02-15T05:13:24;2.30;99.90
26655;DHT22;14278;50.784;4.630;2023-02-15T05:15:52;2.10;99.90
26655;DHT22;14278;50.784;4.630;2023-02-15T05:18:20;2.00;99.90
26655;DHT22;14278;50.784;4.630;2023-02-15T05:20:47;2.10;99.90
26655;DHT22;14278;50.784;4.630;2023-02-15T05:23:13;2.30;99.90
26655;DHT22;14278;50.784;4.630;2023-02-15T05:25:39;2.30;99.90
26655;DHT22;14278;50.784;4.630;2023-02-15T05:28:25;2.20;99.90
26655;DHT22;14278;50.784;4.630;2023-02-15T05:31:10;2.10;99.90
26655;DHT22;14278;50.784;4.630;2023-02-15T05:33:38;2.30;99.90
26655;DHT22;14278;50.784;4.630;2023-02-15T05:36:05;2.10;99.90
26655;DHT22;14278;50.784;4.630;2023-02-15T05:38:31;2.10;99.90
26655;DHT22;14278;50.784;4.630;2023-02-15T05:40:57;2.30;99.90
26655;DHT22;14278;50.784;4.630;2023-02-15T05:43:24;2.40;99.90
26655;DHT22;14278;50.784;4.630;2023-02-15T05:45:54;2.30;99.90
26655;DHT22;14278;50.784;4.630;2023-02-15T05:48:23;2.20;99.90
26655;DHT22;14278;50.784;4.630;2023-02-15T05:51:09;2.00;99.90
26655;DHT22;14278;50.784;4.630;2023-02-15T05:53:39;2.20;99.90
26655;DHT22;14278;50.784;4.630;2023-02-15T05:56:07;2.30;99.90
26655;DHT22;14278;50.784;4.630;2023-02-15T05:58:36;2.30;99.90
26655;DHT22;14278;50.784;4.630;2023-02-15T06:01:18;2.40;99.90
26655;DHT22;14278;50.784;4.630;2023-02-15T06:03:45;2.10;99.90
26655;DHT22;14278;50.784;4.630;2023-02-15T06:06:11;2.10;99.90
26655;DHT22;14278;50.784;4.630;2023-02-15T06:08:38;2.20;99.90
26655;DHT22;14278;50.784;4.630;2023-02-15T06:11:05;2.10;99.90
26655;DHT22;14278;50.784;4.630;2023-02-15T06:13:32;2.20;99.90
26655;DHT22;14278;50.784;4.630;2023-02-15T06:15:59;2.20;99.90
26655;DHT22;14278;50.784;4.630;2023-02-15T06:18:25;2.10;99.90
26655;DHT22;14278;50.784;4.630;2023-02-15T06:20:52;2.00;99.90
26655;DHT22;14278;50.784;4.630;2023-02-15T06:23:21;2.20;99.90
26655;DHT22;14278;50.784;4.630;2023-02-15T06:25:47;2.60;99.90
26655;DHT22;14278;50.784;4.630;2023-02-15T06:28:13;2.60;99.90
26655;DHT22;14278;50.784;4.630;2023-02-15T06:30:39;2.50;99.90
26655;DHT22;14278;50.784;4.630;2023-02-15T06:33:06;2.60;99.90
26655;DHT22;14278;50.784;4.630;2023-02-15T06:35:32;2.30;99.90
26655;DHT22;14278;50.784;4.630;2023-02-15T06:37:58;2.00;99.90
26655;DHT22;14278;50.784;4.630;2023-02-15T06:40:24;1.90;99.90
26655;DHT22;14278;50.784;4.630;2023-02-15T06:42:50;1.90;99.90
26655;DHT22;14278;50.784;4.630;2023-02-15T06:45:16;2.30;99.90
26655;DHT22;14278;50.784;4.630;2023-02-15T06:47:42;2.40;99.90
26655;DHT22;14278;50.784;4.630;2023-02-15T06:50:09;2.50;99.90
26655;DHT22;14278;50.784;4.630;2023-02-15T06:52:35;2.70;99.90
26655;DHT22;14278;50.784;4.630;2023-02-15T06:55:02;2.80;99.90
26655;DHT22;14278;50.784;4.630;2023-02-15T06:57:28;2.70;99.90
26655;DHT22;14278;50.784;4.630;2023-02-15T06:59:54;2.80;99.90
26655;DHT22;14278;50.784;4.630;2023-02-15T07:02:20;3.00;99.90
26655;DHT22;14278;50.784;4.630;2023-02-15T07:04:46;2.90;99.90
26655;DHT22;14278;50.784;4.630;2023-02-15T07:07:12;2.80;99.90
26655;DHT22;14278;50.784;4.630;2023-02-15T07:09:39;2.50;99.90
26655;DHT22;14278;50.784;4.630;2023-02-15T07:12:05;2.30;99.90
26655;DHT22;14278;50.784;4.630;2023-02-15T07:14:51;2.20;99.90
26655;DHT22;14278;50.784;4.630;2023-02-15T07:17:17;2.60;99.90
26655;DHT22;14278;50.784;4.630;2023-02-15T07:19:43;2.90;99.90
26655;DHT22;14278;50.784;4.630;2023-02-15T07:22:09;3.00;99.90
26655;DHT22;14278;50.784;4.630;2023-02-15T07:24:35;3.30;99.90
26655;DHT22;14278;50.784;4.630;2023-02-15T07:27:01;3.60;99.90
26655;DHT22;14278;50.784;4.630;2023-02-15T07:29:27;3.50;99.90
26655;DHT22;14278;50.784;4.630;2023-02-15T07:31:53;3.70;99.90
26655;DHT22;14278;50.784;4.630;2023-02-15T07:34:19;3.80;99.90
26655;DHT22;14278;50.784;4.630;2023-02-15T07:36:45;4.00;99.90
26655;DHT22;14278;50.784;4.630;2023-02-15T07:39:11;4.10;99.90
26655;DHT22;14278;50.784;4.630;2023-02-15T07:41:37;4.30;99.90
26655;DHT22;14278;50.784;4.630;2023-02-15T07:44:03;4.60;99.90
26655;DHT22;14278;50.784;4.630;2023-02-15T07:46:30;4.80;99.90
26655;DHT22;14278;50.784;4.630;2023-02-15T07:48:56;4.80;99.90
26655;DHT22;14278;50.784;4.630;2023-02-15T07:51:22;4.80;99.90
26655;DHT22;14278;50.784;4.630;2023-02-15T07:53:48;4.70;99.90
26655;DHT22;14278;50.784;4.630;2023-02-15T07:56:15;4.70;99.90
26655;DHT22;14278;50.784;4.630;2023-02-15T07:58:41;5.00;99.90
26655;DHT22;14278;50.784;4.630;2023-02-15T08:01:19;5.50;99.90
26655;DHT22;14278;50.784;4.630;2023-02-15T08:03:45;6.00;99.90
26655;DHT22;14278;50.784;4.630;2023-02-15T08:06:11;6.40;99.90
26655;DHT22;14278;50.784;4.630;2023-02-15T08:08:39;6.70;99.90
26655;DHT22;14278;50.784;4.630;2023-02-15T08:11:20;6.80;99.90
26655;DHT22;14278;50.784;4.630;2023-02-15T08:16:39;6.90;99.90
26655;DHT22;14278;50.784;4.630;2023-02-15T08:19:16;7.10;99.90
26655;DHT22;14278;50.784;4.630;2023-02-15T08:21:45;7.00;99.90
26655;DHT22;14278;50.784;4.630;2023-02-15T08:24:14;6.90;99.90
26655;DHT22;14278;50.784;4.630;2023-02-15T08:26:40;6.90;99.90
26655;DHT22;14278;50.784;4.630;2023-02-15T08:29:08;6.80;99.90
26655;DHT22;14278;50.784;4.630;2023-02-15T08:31:35;6.70;99.90
26655;DHT22;14278;50.784;4.630;2023-02-15T08:34:03;6.50;99.90
26655;DHT22;14278;50.784;4.630;2023-02-15T08:36:30;6.10;99.90
26655;DHT22;14278;50.784;4.630;2023-02-15T08:39:02;6.10;99.90
26655;DHT22;14278;50.784;4.630;2023-02-15T08:41:30;6.60;99.90
26655;DHT22;14278;50.784;4.630;2023-02-15T08:43:59;7.10;99.90
26655;DHT22;14278;50.784;4.630;2023-02-15T08:46:27;7.30;99.90
26655;DHT22;14278;50.784;4.630;2023-02-15T08:48:54;7.40;99.90
26655;DHT22;14278;50.784;4.630;2023-02-15T08:51:22;7.20;99.90
26655;DHT22;14278;50.784;4.630;2023-02-15T08:53:51;7.00;99.90
26655;DHT22;14278;50.784;4.630;2023-02-15T08:56:19;7.40;99.90
26655;DHT22;14278;50.784;4.630;2023-02-15T08:58:45;7.70;99.90
26655;DHT22;14278;50.784;4.630;2023-02-15T09:01:14;8.00;99.90
26655;DHT22;14278;50.784;4.630;2023-02-15T09:03:44;8.30;99.90
26655;DHT22;14278;50.784;4.630;2023-02-15T09:06:11;8.80;99.90
26655;DHT22;14278;50.784;4.630;2023-02-15T09:08:37;9.00;99.90
26655;DHT22;14278;50.784;4.630;2023-02-15T09:11:12;9.30;99.90
26655;DHT22;14278;50.784;4.630;2023-02-15T09:13:39;9.50;99.90
26655;DHT22;14278;50.784;4.630;2023-02-15T09:16:07;9.70;99.90
26655;DHT22;14278;50.784;4.630;2023-02-15T09:18:36;10.10;99.90
26655;DHT22;14278;50.784;4.630;2023-02-15T09:21:08;10.30;99.90
26655;DHT22;14278;50.784;4.630;2023-02-15T09:23:34;10.50;99.90
26655;DHT22;14278;50.784;4.630;2023-02-15T09:26:07;10.60;99.90
26655;DHT22;14278;50.784;4.630;2023-02-15T09:28:33;10.50;99.90
26655;DHT22;14278;50.784;4.630;2023-02-15T09:31:16;10.50;99.90
26655;DHT22;14278;50.784;4.630;2023-02-15T09:33:43;11.30;99.90
26655;DHT22;14278;50.784;4.630;2023-02-15T09:38:57;12.60;99.90
26655;DHT22;14278;50.784;4.630;2023-02-15T09:44:17;13.10;99.90
26655;DHT22;14278;50.784;4.630;2023-02-15T10:00:40;13.70;99.90
26655;DHT22;14278;50.784;4.630;2023-02-15T10:08:48;15.50;99.90
26655;DHT22;14278;50.784;4.630;2023-02-15T10:14:43;15.50;99.90
26655;DHT22;14278;50.784;4.630;2023-02-15T10:17:19;14.30;99.90
26655;DHT22;14278;50.784;4.630;2023-02-15T10:25:33;13.60;99.90
26655;DHT22;14278;50.784;4.630;2023-02-15T10:28:06;14.30;99.90
26655;DHT22;14278;50.784;4.630;2023-02-15T10:30:53;14.20;99.90
26655;DHT22;14278;50.784;4.630;2023-02-15T10:33:39;12.70;99.90
26655;DHT22;14278;50.784;4.630;2023-02-15T10:39:26;12.90;99.90
26655;DHT22;14278;50.784;4.630;2023-02-15T10:50:42;14.50;99.90
26655;DHT22;14278;50.784;4.630;2023-02-15T11:04:24;15.10;99.90
26655;DHT22;14278;50.784;4.630;2023-02-15T11:06:58;15.50;99.90
26655;DHT22;14278;50.784;4.630;2023-02-15T11:09:29;14.60;99.90
26655;DHT22;14278;50.784;4.630;2023-02-15T11:11:59;14.70;99.90
26655;DHT22;14278;50.784;4.630;2023-02-15T11:14:46;14.90;99.90
26655;DHT22;14278;50.784;4.630;2023-02-15T11:17:19;15.60;99.90
26655;DHT22;14278;50.784;4.630;2023-02-15T11:20:02;15.20;99.90
26655;DHT22;14278;50.784;4.630;2023-02-15T11:22:31;15.50;99.90
26655;DHT22;14278;50.784;4.630;2023-02-15T11:25:00;15.30;99.90
26655;DHT22;14278;50.784;4.630;2023-02-15T11:27:31;16.20;99.90
26655;DHT22;14278;50.784;4.630;2023-02-15T11:30:03;16.50;99.90
26655;DHT22;14278;50.784;4.630;2023-02-15T11:32:33;16.80;99.90
26655;DHT22;14278;50.784;4.630;2023-02-15T11:38:01;16.90;99.90
26655;DHT22;14278;50.784;4.630;2023-02-15T11:40:48;16.60;99.90
26655;DHT22;14278;50.784;4.630;2023-02-15T11:46:02;16.30;99.90
26655;DHT22;14278;50.784;4.630;2023-02-15T11:48:30;16.70;99.90
26655;DHT22;14278;50.784;4.630;2023-02-15T11:50:58;16.20;99.90
26655;DHT22;14278;50.784;4.630;2023-02-15T11:53:24;15.70;99.90
26655;DHT22;14278;50.784;4.630;2023-02-15T11:55:53;15.00;99.90
26655;DHT22;14278;50.784;4.630;2023-02-15T11:58:35;15.00;99.90
26655;DHT22;14278;50.784;4.630;2023-02-15T12:01:30;15.30;99.90
26655;DHT22;14278;50.784;4.630;2023-02-15T12:06:54;14.70;99.90
26655;DHT22;14278;50.784;4.630;2023-02-15T12:09:35;15.10;99.90
26655;DHT22;14278;50.784;4.630;2023-02-15T12:14:55;16.00;99.90
26655;DHT22;14278;50.784;4.630;2023-02-15T12:17:27;15.50;99.90
26655;DHT22;14278;50.784;4.630;2023-02-15T12:20:00;15.50;99.90
26655;DHT22;14278;50.784;4.630;2023-02-15T12:22:31;15.30;99.90
26655;DHT22;14278;50.784;4.630;2023-02-15T12:27:47;15.20;99.90
26655;DHT22;14278;50.784;4.630;2023-02-15T12:30:25;15.30;99.90
26655;DHT22;14278;50.784;4.630;2023-02-15T12:35:43;14.80;99.90
26655;DHT22;14278;50.784;4.630;2023-02-15T12:40:36;14.60;99.90
26655;DHT22;14278;50.784;4.630;2023-02-15T12:43:02;14.70;99.90
26655;DHT22;14278;50.784;4.630;2023-02-15T12:45:35;15.10;99.90
26655;DHT22;14278;50.784;4.630;2023-02-15T12:48:20;14.30;99.90
26655;DHT22;14278;50.784;4.630;2023-02-15T12:50:50;15.10;99.90
26655;DHT22;14278;50.784;4.630;2023-02-15T12:53:19;15.30;99.90
26655;DHT22;14278;50.784;4.630;2023-02-15T12:55:54;15.20;99.90
26655;DHT22;14278;50.784;4.630;2023-02-15T12:58:30;14.70;99.90
26655;DHT22;14278;50.784;4.630;2023-02-15T13:03:38;14.20;99.90
26655;DHT22;14278;50.784;4.630;2023-02-15T13:06:05;14.20;99.90
26655;DHT22;14278;50.784;4.630;2023-02-15T13:08:39;14.80;99.90
26655;DHT22;14278;50.784;4.630;2023-02-15T13:11:11;14.60;99.90
26655;DHT22;14278;50.784;4.630;2023-02-15T13:13:54;14.80;99.90
26655;DHT22;14278;50.784;4.630;2023-02-15T13:16:39;14.90;99.90
26655;DHT22;14278;50.784;4.630;2023-02-15T13:22:14;15.00;99.90
26655;DHT22;14278;50.784;4.630;2023-02-15T13:24:46;14.60;99.90
26655;DHT22;14278;50.784;4.630;2023-02-15T13:27:19;14.60;99.90
26655;DHT22;14278;50.784;4.630;2023-02-15T13:29:55;14.20;99.90
26655;DHT22;14278;50.784;4.630;2023-02-15T13:32:31;14.30;99.90
26655;DHT22;14278;50.784;4.630;2023-02-15T13:35:00;14.40;99.90
26655;DHT22;14278;50.784;4.630;2023-02-15T13:37:55;14.40;99.90
26655;DHT22;14278;50.784;4.630;2023-02-15T13:40:45;14.20;99.90
26655;DHT22;14278;50.784;4.630;2023-02-15T13:46:12;13.80;99.90
26655;DHT22;14278;50.784;4.630;2023-02-15T13:49:29;14.10;99.90
26655;DHT22;14278;50.784;4.630;2023-02-15T13:52:27;14.20;99.90
26655;DHT22;14278;50.784;4.630;2023-02-15T13:55:13;14.50;99.90
26655;DHT22;14278;50.784;4.630;2023-02-15T13:57:58;14.40;99.90
26655;DHT22;14278;50.784;4.630;2023-02-15T14:03:28;14.70;99.90
26655;DHT22;14278;50.784;4.630;2023-02-15T14:11:24;14.60;99.90
26655;DHT22;14278;50.784;4.630;2023-02-15T14:19:45;14.20;99.90
26655;DHT22;14278;50.784;4.630;2023-02-15T14:28:05;13.80;99.90
26655;DHT22;14278;50.784;4.630;2023-02-15T14:30:37;13.60;99.90
26655;DHT22;14278;50.784;4.630;2023-02-15T14:33:21;13.70;99.90
26655;DHT22;14278;50.784;4.630;2023-02-15T14:35:51;14.00;99.90
26655;DHT22;14278;50.784;4.630;2023-02-15T14:44:22;13.70;99.90
26655;DHT22;14278;50.784;4.630;2023-02-15T14:49:40;13.70;99.90
26655;DHT22;14278;50.784;4.630;2023-02-15T14:52:07;13.60;99.90
26655;DHT22;14278;50.784;4.630;2023-02-15T14:59:46;13.70;99.90
26655;DHT22;14278;50.784;4.630;2023-02-15T15:03:09;13.90;99.90
26655;DHT22;14278;50.784;4.630;2023-02-15T15:05:33;13.70;99.90
26655;DHT22;14278;50.784;4.630;2023-02-15T15:08:02;13.80;99.90
26655;DHT22;14278;50.784;4.630;2023-02-15T15:10:44;13.90;99.90
26655;DHT22;14278;50.784;4.630;2023-02-15T15:16:28;13.80;99.90
26655;DHT22;14278;50.784;4.630;2023-02-15T15:18:55;13.70;99.90
26655;DHT22;14278;50.784;4.630;2023-02-15T15:49:21;13.20;99.90
26655;DHT22;14278;50.784;4.630;2023-02-15T15:51:49;12.80;99.90
26655;DHT22;14278;50.784;4.630;2023-02-15T15:54:21;12.80;99.90
26655;DHT22;14278;50.784;4.630;2023-02-15T15:57:00;12.90;99.90
26655;DHT22;14278;50.784;4.630;2023-02-15T15:59:33;12.70;99.90
26655;DHT22;14278;50.784;4.630;2023-02-15T16:02:17;12.70;99.90
26655;DHT22;14278;50.784;4.630;2023-02-15T16:04:44;12.50;99.90
26655;DHT22;14278;50.784;4.630;2023-02-15T16:10:00;12.80;99.90
26655;DHT22;14278;50.784;4.630;2023-02-15T16:12:31;12.80;99.90
26655;DHT22;14278;50.784;4.630;2023-02-15T16:14:58;12.30;99.90
26655;DHT22;14278;50.784;4.630;2023-02-15T16:17:31;12.10;99.90
26655;DHT22;14278;50.784;4.630;2023-02-15T16:20:06;12.10;99.90
26655;DHT22;14278;50.784;4.630;2023-02-15T16:22:34;11.90;99.90
26655;DHT22;14278;50.784;4.630;2023-02-15T16:25:07;12.00;99.90
26655;DHT22;14278;50.784;4.630;2023-02-15T16:27:46;11.80;99.90
26655;DHT22;14278;50.784;4.630;2023-02-15T16:32:43;11.90;99.90
26655;DHT22;14278;50.784;4.630;2023-02-15T16:35:16;12.20;99.90
26655;DHT22;14278;50.784;4.630;2023-02-15T16:37:42;12.10;99.90
26655;DHT22;14278;50.784;4.630;2023-02-15T16:42:52;12.20;99.90
26655;DHT22;14278;50.784;4.630;2023-02-15T16:45:22;12.20;99.90
26655;DHT22;14278;50.784;4.630;2023-02-15T16:47:53;11.80;99.90
26655;DHT22;14278;50.784;4.630;2023-02-15T16:50:23;11.90;99.90
26655;DHT22;14278;50.784;4.630;2023-02-15T16:52:51;11.70;99.90
26655;DHT22;14278;50.784;4.630;2023-02-15T16:55:30;11.60;99.90
26655;DHT22;14278;50.784;4.630;2023-02-15T16:58:04;11.60;99.90
26655;DHT22;14278;50.784;4.630;2023-02-15T17:00:35;11.70;99.90
26655;DHT22;14278;50.784;4.630;2023-02-15T17:03:04;11.70;99.90
26655;DHT22;14278;50.784;4.630;2023-02-15T17:08:17;11.70;99.90
26655;DHT22;14278;50.784;4.630;2023-02-15T17:11:03;11.50;99.90
26655;DHT22;14278;50.784;4.630;2023-02-15T17:13:32;11.00;99.90
26655;DHT22;14278;50.784;4.630;2023-02-15T17:18:37;10.80;99.90
26655;DHT22;14278;50.784;4.630;2023-02-15T17:21:16;10.70;99.90
26655;DHT22;14278;50.784;4.630;2023-02-15T17:23:45;10.60;99.90
26655;DHT22;14278;50.784;4.630;2023-02-15T17:26:24;10.80;99.90
26655;DHT22;14278;50.784;4.630;2023-02-15T17:28:54;10.80;99.90
26655;DHT22;14278;50.784;4.630;2023-02-15T17:31:26;10.90;99.90
26655;DHT22;14278;50.784;4.630;2023-02-15T17:33:57;10.70;99.90
26655;DHT22;14278;50.784;4.630;2023-02-15T17:36:29;10.70;99.90
26655;DHT22;14278;50.784;4.630;2023-02-15T17:41:43;10.30;99.90
26655;DHT22;14278;50.784;4.630;2023-02-15T17:44:10;10.40;99.90
26655;DHT22;14278;50.784;4.630;2023-02-15T17:46:39;10.40;99.90
26655;DHT22;14278;50.784;4.630;2023-02-15T17:49:06;10.40;99.90
26655;DHT22;14278;50.784;4.630;2023-02-15T17:51:32;10.40;99.90
26655;DHT22;14278;50.784;4.630;2023-02-15T17:54:01;10.30;99.90
26655;DHT22;14278;50.784;4.630;2023-02-15T17:56:46;10.30;99.90
26655;DHT22;14278;50.784;4.630;2023-02-15T17:59:12;10.20;99.90
26655;DHT22;14278;50.784;4.630;2023-02-15T18:01:48;10.30;99.90
26655;DHT22;14278;50.784;4.630;2023-02-15T18:04:33;10.20;99.90
26655;DHT22;14278;50.784;4.630;2023-02-15T18:07:19;10.10;99.90
26655;DHT22;14278;50.784;4.630;2023-02-15T18:10:13;10.10;99.90
26655;DHT22;14278;50.784;4.630;2023-02-15T18:12:58;10.10;99.90
26655;DHT22;14278;50.784;4.630;2023-02-15T18:15:24;10.00;99.90
26655;DHT22;14278;50.784;4.630;2023-02-15T18:17:51;9.90;99.90
26655;DHT22;14278;50.784;4.630;2023-02-15T18:20:18;9.50;99.90
26655;DHT22;14278;50.784;4.630;2023-02-15T18:22:45;9.70;99.90
26655;DHT22;14278;50.784;4.630;2023-02-15T18:25:13;9.90;99.90
26655;DHT22;14278;50.784;4.630;2023-02-15T18:27:39;10.30;99.90
26655;DHT22;14278;50.784;4.630;2023-02-15T18:30:06;10.20;99.90
26655;DHT22;14278;50.784;4.630;2023-02-15T18:32:35;10.10;99.90
26655;DHT22;14278;50.784;4.630;2023-02-15T18:35:02;10.10;99.90
26655;DHT22;14278;50.784;4.630;2023-02-15T18:37:31;9.70;99.90
26655;DHT22;14278;50.784;4.630;2023-02-15T18:39:59;9.60;99.90
26655;DHT22;14278;50.784;4.630;2023-02-15T18:42:30;9.80;99.90
26655;DHT22;14278;50.784;4.630;2023-02-15T18:44:58;9.90;99.90
26655;DHT22;14278;50.784;4.630;2023-02-15T18:47:25;9.90;99.90
26655;DHT22;14278;50.784;4.630;2023-02-15T18:49:51;9.70;99.90
26655;DHT22;14278;50.784;4.630;2023-02-15T18:52:29;9.60;99.90
26655;DHT22;14278;50.784;4.630;2023-02-15T18:55:02;9.50;99.90
26655;DHT22;14278;50.784;4.630;2023-02-15T18:57:29;9.20;99.90
26655;DHT22;14278;50.784;4.630;2023-02-15T18:59:55;9.30;99.90
26655;DHT22;14278;50.784;4.630;2023-02-15T19:02:21;9.50;99.90
26655;DHT22;14278;50.784;4.630;2023-02-15T19:04:47;9.50;99.90
26655;DHT22;14278;50.784;4.630;2023-02-15T19:07:20;9.20;99.90
26655;DHT22;14278;50.784;4.630;2023-02-15T19:09:52;9.30;99.90
26655;DHT22;14278;50.784;4.630;2023-02-15T19:12:19;9.20;99.90
26655;DHT22;14278;50.784;4.630;2023-02-15T19:14:45;9.00;99.90
26655;DHT22;14278;50.784;4.630;2023-02-15T19:17:17;8.80;99.90
26655;DHT22;14278;50.784;4.630;2023-02-15T19:19:44;9.00;99.90